Aviation Digital Data Service (ADDS)

Output produced by METARs form (0419 UTC 26 June 2019)
found at http://www.aviationweather.gov/metar/data/
 
METAR text: DNMM 251100Z 23003KT 8000 BKN013 FEW020CB 29/25 Q1015 NOSIG
Conditions at: DNMM (LAGOS/IKEJA , NG) observed 1100 UTC 25 June 2019
Temperature: 29.0°C (84°F)
Dewpoint: 25.0°C (77°F) [RH = 79%]
Pressure (altimeter): 29.97 inches Hg (1015.0 mb)
Winds: from the SW (230 degrees) at 3 MPH (3 knots; 1.5 m/s)
Visibility: 5 miles ( 8 km)
Ceiling: 1300 feet AGL
Clouds: broken clouds at 1300 feet AGL
few clouds at 2000 feet AGL
Weather: no significant weather observed at this time

METAR text: DNMM 251000Z 22003KT 9999 BKN011 FEW020CB 27/25 Q1015 NOSIG
Conditions at: DNMM (LAGOS/IKEJA , NG) observed 1000 UTC 25 June 2019
Temperature: 27.0°C (81°F)
Dewpoint: 25.0°C (77°F) [RH = 89%]
Pressure (altimeter): 29.97 inches Hg (1015.0 mb)
Winds: from the SW (220 degrees) at 3 MPH (3 knots; 1.5 m/s)
Visibility: 6 or more miles (10+ km)
Ceiling: 1100 feet AGL
Clouds: broken clouds at 1100 feet AGL
few clouds at 2000 feet AGL
Weather: no significant weather observed at this time

METAR text: DNMM 250900Z VRB02KT 4000 BR BKN009 25/24 Q1016 NOSIG
Conditions at: DNMM (LAGOS/IKEJA , NG) observed 0900 UTC 25 June 2019
Temperature: 25.0°C (77°F)
Dewpoint: 24.0°C (75°F) [RH = 94%]
Pressure (altimeter): 30.00 inches Hg (1016.0 mb)
Winds: variable direction winds at 2 MPH (2 knots; 1.0 m/s)
Visibility: 2.49 miles (4.01 km)
Ceiling: 900 feet AGL
Clouds: broken clouds at 900 feet AGL
Weather: BR  (mist)

METAR text: DNMM 250800Z 04003KT 4000 BR BKN009 25/24 Q1015 NOSIG
Conditions at: DNMM (LAGOS/IKEJA , NG) observed 0800 UTC 25 June 2019
Temperature: 25.0°C (77°F)
Dewpoint: 24.0°C (75°F) [RH = 94%]
Pressure (altimeter): 29.97 inches Hg (1015.0 mb)
Winds: from the NE (40 degrees) at 3 MPH (3 knots; 1.5 m/s)
Visibility: 2.49 miles (4.01 km)
Ceiling: 900 feet AGL
Clouds: broken clouds at 900 feet AGL
Weather: BR  (mist)

METAR text: DNMM 250700Z 09005KT 1200 R18R/0600U R18L/0600U -RA BKN007 23/23 Q1015 TEMPO 1500 -RA
Conditions at: DNMM (LAGOS/IKEJA , NG) observed 0700 UTC 25 June 2019
Temperature: 23.0°C (73°F)
Dewpoint: 23.0°C (73°F) [RH = 100%]
Pressure (altimeter): 29.97 inches Hg (1015.0 mb)
Winds: from the E (90 degrees) at 6 MPH (5 knots; 2.6 m/s)
Visibility: 0.75 miles (1.21 km)
Ceiling: 700 feet AGL
Clouds: broken clouds at 700 feet AGL
Weather: -RA  (light rain)

METAR text: DNMM 250500Z 02004KT 4000 BR FEW007 23/23 Q1013 TEMPO 3000
Conditions at: DNMM (LAGOS/IKEJA , NG) observed 0500 UTC 25 June 2019
Temperature: 23.0°C (73°F)
Dewpoint: 23.0°C (73°F) [RH = 100%]
Pressure (altimeter): 29.91 inches Hg (1013.0 mb)
Winds: from the NNE (20 degrees) at 5 MPH (4 knots; 2.1 m/s)
Visibility: 2.49 miles (4.01 km)
Ceiling: at least 12,000 feet AGL
Clouds: few clouds at 700 feet AGL
Weather: BR  (mist)

METAR text: DNMM 250400Z VRB02KT 4000 BR FEW007 23/23 Q1013 TEMPO 3000
Conditions at: DNMM (LAGOS/IKEJA , NG) observed 0400 UTC 25 June 2019
Temperature: 23.0°C (73°F)
Dewpoint: 23.0°C (73°F) [RH = 100%]
Pressure (altimeter): 29.91 inches Hg (1013.0 mb)
Winds: variable direction winds at 2 MPH (2 knots; 1.0 m/s)
Visibility: 2.49 miles (4.01 km)
Ceiling: at least 12,000 feet AGL
Clouds: few clouds at 700 feet AGL
Weather: BR  (mist)

METAR text: DNMM 250300Z VRB02KT 5000 -DZ FEW007 23/23 Q1013 NOSIG
Conditions at: DNMM (LAGOS/IKEJA , NG) observed 0300 UTC 25 June 2019
Temperature: 23.0°C (73°F)
Dewpoint: 23.0°C (73°F) [RH = 100%]
Pressure (altimeter): 29.91 inches Hg (1013.0 mb)
Winds: variable direction winds at 2 MPH (2 knots; 1.0 m/s)
Visibility: 3 miles ( 5 km)
Ceiling: at least 12,000 feet AGL
Clouds: few clouds at 700 feet AGL
Weather: -DZ  (light drizzle)

METAR text: DNMM 250200Z VRB02KT 5000 -DZ FEW007 23/23 Q1013 NOSIG
Conditions at: DNMM (LAGOS/IKEJA , NG) observed 0200 UTC 25 June 2019
Temperature: 23.0°C (73°F)
Dewpoint: 23.0°C (73°F) [RH = 100%]
Pressure (altimeter): 29.91 inches Hg (1013.0 mb)
Winds: variable direction winds at 2 MPH (2 knots; 1.0 m/s)
Visibility: 3 miles ( 5 km)
Ceiling: at least 12,000 feet AGL
Clouds: few clouds at 700 feet AGL
Weather: -DZ  (light drizzle)

METAR text: DNMM 250100Z VRB02KT 5000 -DZ FEW007 23/23 Q1014 NOSIG
Conditions at: DNMM (LAGOS/IKEJA , NG) observed 0100 UTC 25 June 2019
Temperature: 23.0°C (73°F)
Dewpoint: 23.0°C (73°F) [RH = 100%]
Pressure (altimeter): 29.94 inches Hg (1014.0 mb)
Winds: variable direction winds at 2 MPH (2 knots; 1.0 m/s)
Visibility: 3 miles ( 5 km)
Ceiling: at least 12,000 feet AGL
Clouds: few clouds at 700 feet AGL
Weather: -DZ  (light drizzle)

METAR text: DNMM 250000Z VRB02KT 5000 -DZ SCT007 23/23 Q1014 NOSIG
Conditions at: DNMM (LAGOS/IKEJA , NG) observed 0000 UTC 25 June 2019
Temperature: 23.0°C (73°F)
Dewpoint: 23.0°C (73°F) [RH = 100%]
Pressure (altimeter): 29.94 inches Hg (1014.0 mb)
Winds: variable direction winds at 2 MPH (2 knots; 1.0 m/s)
Visibility: 3 miles ( 5 km)
Ceiling: at least 12,000 feet AGL
Clouds: scattered clouds at 700 feet AGL
Weather: -DZ  (light drizzle)

METAR text: DNMM 242200Z 34004KT 5000 -DZ SCT007 23/23 Q1015 NOSIG
Conditions at: DNMM (LAGOS/IKEJA , NG) observed 2200 UTC 24 June 2019
Temperature: 23.0°C (73°F)
Dewpoint: 23.0°C (73°F) [RH = 100%]
Pressure (altimeter): 29.97 inches Hg (1015.0 mb)
Winds: from the NNW (340 degrees) at 5 MPH (4 knots; 2.1 m/s)
Visibility: 3 miles ( 5 km)
Ceiling: at least 12,000 feet AGL
Clouds: scattered clouds at 700 feet AGL
Weather: -DZ  (light drizzle)

METAR text: DNMM 242100Z VRB02KT 6000 SCT007 23/22 Q1014 TEMPO 5000 -TSRA BKN007 FEW017CB
Conditions at: DNMM (LAGOS/IKEJA , NG) observed 2100 UTC 24 June 2019
Temperature: 23.0°C (73°F)
Dewpoint: 22.0°C (72°F) [RH = 94%]
Pressure (altimeter): 29.94 inches Hg (1014.0 mb)
Winds: variable direction winds at 2 MPH (2 knots; 1.0 m/s)
Visibility: 4 miles ( 6 km)
Ceiling: at least 12,000 feet AGL
Clouds: scattered clouds at 700 feet AGL
Weather: no significant weather observed at this time

METAR text: DNMM 242000Z VRB02KT 6000 -DZ BKN007 23/22 Q1013 TEMPO 5000 -TSRA BKN007 FEW017CB
Conditions at: DNMM (LAGOS/IKEJA , NG) observed 2000 UTC 24 June 2019
Temperature: 23.0°C (73°F)
Dewpoint: 22.0°C (72°F) [RH = 94%]
Pressure (altimeter): 29.91 inches Hg (1013.0 mb)
Winds: variable direction winds at 2 MPH (2 knots; 1.0 m/s)
Visibility: 4 miles ( 6 km)
Ceiling: 700 feet AGL
Clouds: broken clouds at 700 feet AGL
Weather: -DZ  (light drizzle)

METAR text: DNMM 241900Z 21004KT 6000 -DZ BKN007 23/22 Q1012 NOSIG
Conditions at: DNMM (LAGOS/IKEJA , NG) observed 1900 UTC 24 June 2019
Temperature: 23.0°C (73°F)
Dewpoint: 22.0°C (72°F) [RH = 94%]
Pressure (altimeter): 29.88 inches Hg (1012.0 mb)
Winds: from the SSW (210 degrees) at 5 MPH (4 knots; 2.1 m/s)
Visibility: 4 miles ( 6 km)
Ceiling: 700 feet AGL
Clouds: broken clouds at 700 feet AGL
Weather: -DZ  (light drizzle)

METAR text: DNMM 241800Z 00000KT 8000 TS BKN007 FEW017CB 23/22 Q1013 NOSIG
Conditions at: DNMM (LAGOS/IKEJA , NG) observed 1800 UTC 24 June 2019
Temperature: 23.0°C (73°F)
Dewpoint: 22.0°C (72°F) [RH = 94%]
Pressure (altimeter): 29.91 inches Hg (1013.0 mb)
Winds: calm
Visibility: 5 miles ( 8 km)
Ceiling: 700 feet AGL
Clouds: broken clouds at 700 feet AGL
few clouds at 1700 feet AGL
Weather: TS  (thunderstorm)

METAR text: DNMM 241700Z 00000KT 8000 -TSRA SCT007 FEW017CB 23/22 Q1013 NOSIG
Conditions at: DNMM (LAGOS/IKEJA , NG) observed 1700 UTC 24 June 2019
Temperature: 23.0°C (73°F)
Dewpoint: 22.0°C (72°F) [RH = 94%]
Pressure (altimeter): 29.91 inches Hg (1013.0 mb)
Winds: calm
Visibility: 5 miles ( 8 km)
Ceiling: at least 12,000 feet AGL
Clouds: scattered clouds at 700 feet AGL
few clouds at 1700 feet AGL
Weather: -TSRA  (light rain associated with thunderstorm(s))